Main page
METAR-TAF:

METAR-TAF

Airports :

Khartoum International Airport

Khartoum, Sudan

latitude: 15-36N, longitude: 032-33E, elevation: 382 m

Current weather observation

The report was made 18 minutes ago, at 01:30 UTC
Wind 7 kt from the North
Temperature 17°C
Humidity 17%
Pressure 1015 hPa
Visibility 10 km or more
no clouds below 1500 m and no cumulonimbus

METAR: HSSS 200130Z 35007KT CAVOK 17/M08 Q1015 NOSIG

Time: 04:48 (01:48 UTC)

Forecast

The report was made 2 hours and 48 minutes ago, at 23:00 UTC
Forecast valid from 20 at 00 UTC to 21 at 06 UTC
Wind 12 kt from the North/Northeast with gusts up to 20 kt
Visibility 10 km or more
no clouds below 1500 m and no cumulonimbus
Temporary
from 20 at 00 UTC to 20 at 09 UTC
Wind 8 kt from the Northwest

TAF: HSSS 192300Z 2000/2106 03012G20KT CAVOK TEMPO 2000/2009 32008KT

Weather observations and forecasts of more than 4000 airports (METAR and TAF reports).

The available stations are represented by yellow and red dots on the map.

Hover mouse over dot to see the name of the station.

Then click to see weather observations and forecasts.

To change the map : click on the green buttons with a black cross to zoom in, on the green button with a dash to zoom out, or on the green arrows for adjacent maps.


METAR-TAF: